Archiv-/Tagesdaten

--Timestamp---	Temp	Chill	HIndex	Humid	Dewpt	Wind	HiWind	WindDir	Rain	Barom	        Solar	ET	UV
--------------	----	-----	------	-----	-----	----	------	-------	----	-----	        -----	--	--
20090113 00:05	-8.7	-8.7	-8.7	86	-10.6	0	0	135	0.00	1026.146	0	0.000	0
20090113 00:10	-8.6	-8.6	-8.6	86	-10.5	0	0	135	0.00	1026.146	0	0.000	0
20090113 00:15	-8.6	-8.6	-8.6	86	-10.5	0	0	135	0.00	1026.079	0	0.000	0
20090113 00:20	-8.6	-8.6	-8.6	86	-10.5	0	2	135	0.00	1025.943	0	0.000	0
20090113 00:25	-8.6	-8.6	-8.6	86	-10.5	0	2	135	0.00	1025.943	0	0.000	0
20090113 00:30	-8.6	-8.6	-8.6	86	-10.5	0	0	135	0.00	1025.977	0	0.000	0
20090113 00:35	-8.5	-8.5	-8.5	86	-10.4	0	5	135	0.00	1025.909	0	0.000	0
20090113 00:40	-8.4	-8.4	-8.4	87	-10.2	2	5	135	0.00	1025.842	0	0.000	0
20090113 00:45	-8.3	-8.3	-8.3	87	-10.0	0	3	135	0.00	1025.774	0	0.000	0
20090113 00:50	-8.3	-8.3	-8.3	87	-10.0	0	3	135	0.00	1025.672	0	0.000	0
20090113 00:55	-8.3	-8.3	-8.3	86	-10.2	0	2	135	0.00	1025.672	0	0.000	0
20090113 01:00	-8.3	-8.3	-8.3	86	-10.2	0	0	135	0.00	1025.638	0	0.000	0
20090113 01:05	-8.3	-8.3	-8.3	86	-10.2	0	0	135	0.00	1025.334	0	0.000	0
20090113 01:10	-8.5	-8.5	-8.5	85	-10.6	0	0	135	0.00	1025.232	0	0.000	0
20090113 01:15	-8.6	-8.6	-8.6	85	-10.6	0	2	135	0.00	1025.130	0	0.000	0
20090113 01:20	-8.6	-8.6	-8.6	85	-10.7	0	2	135	0.00	1025.130	0	0.000	0
20090113 01:25	-8.7	-8.7	-8.7	84	-10.9	0	3	135	0.00	1025.097	0	0.000	0
20090113 01:30	-8.8	-8.8	-8.8	85	-10.9	0	0	135	0.00	1025.029	0	0.000	0
20090113 01:35	-8.9	-8.9	-8.9	85	-11.0	2	3	135	0.00	1025.029	0	0.000	0
20090113 01:40	-9.0	-9.0	-9.0	85	-11.1	0	2	135	0.00	1024.995	0	0.000	0
20090113 01:45	-9.0	-9.0	-9.0	85	-11.1	2	3	135	0.00	1024.859	0	0.000	0
20090113 01:50	-9.1	-9.1	-9.1	85	-11.1	2	3	135	0.00	1024.724	0	0.000	0
20090113 01:55	-9.2	-9.2	-9.2	86	-11.1	0	2	135	0.00	1024.724	0	0.000	0
20090113 02:00	-9.2	-9.2	-9.2	86	-11.1	0	0	135	0.00	1024.792	0	0.000	0
20090113 02:05	-9.2	-9.2	-9.2	86	-11.1	0	0	135	0.00	1024.724	0	0.000	0
20090113 02:10	-9.1	-9.1	-9.1	86	-11.0	0	0	135	0.00	1024.690	0	0.000	0
20090113 02:15	-9.1	-9.1	-9.1	86	-11.0	0	2	135	0.00	1024.690	0	0.000	0
20090113 02:20	-9.2	-9.2	-9.2	85	-11.2	0	0	135	0.00	1024.690	0	0.000	0
20090113 02:25	-9.3	-9.3	-9.3	84	-11.5	0	3	135	0.00	1024.792	0	0.000	0
20090113 02:30	-9.5	-9.5	-9.5	85	-11.5	2	2	135	0.00	1024.859	0	0.000	0
20090113 02:35	-9.7	-9.7	-9.7	85	-11.7	0	0	135	0.00	1024.859	0	0.000	0
20090113 02:40	-9.7	-9.7	-9.7	85	-11.8	0	0	135	0.00	1024.859	0	0.000	0
20090113 02:45	-9.8	-9.8	-9.8	85	-11.9	0	2	135	0.00	1024.961	0	0.000	0
20090113 02:50	-9.9	-9.9	-9.9	85	-12.0	0	2	135	0.00	1024.927	0	0.000	0
20090113 02:55	-10.1	-10.1	-10.1	85	-12.1	0	3	135	0.00	1024.927	0	0.000	0
20090113 03:00	-10.1	-10.1	-10.1	86	-11.9	0	0	135	0.00	1024.859	0	0.000	0
20090113 03:05	-10.1	-10.1	-10.1	86	-12.0	0	2	135	0.00	1024.792	0	0.000	0
20090113 03:10	-10.1	-10.1	-10.1	86	-12.0	0	0	135	0.00	1024.859	0	0.000	0
20090113 03:15	-10.1	-10.1	-10.1	86	-12.0	0	0	135	0.00	1024.859	0	0.000	0
20090113 03:20	-10.1	-10.1	-10.1	86	-12.0	0	0	135	0.00	1024.758	0	0.000	0
20090113 03:25	-10.2	-10.2	-10.2	86	-12.1	0	0	135	0.00	1024.792	0	0.000	0
20090113 03:30	-10.2	-10.2	-10.2	86	-12.1	0	3	135	0.00	1024.792	0	0.000	0
20090113 03:35	-10.2	-10.2	-10.2	86	-12.1	0	0	135	0.00	1024.724	0	0.000	0
20090113 03:40	-10.1	-10.1	-10.1	86	-11.9	0	0	135	0.00	1024.690	0	0.000	0
20090113 03:45	-10.0	-10.0	-10.0	86	-11.9	0	2	135	0.00	1024.656	0	0.000	0
20090113 03:50	-9.9	-9.9	-9.9	86	-11.8	0	2	135	0.00	1024.623	0	0.000	0
20090113 03:55	-9.9	-9.9	-9.9	86	-11.8	0	2	135	0.00	1024.521	0	0.000	0
20090113 04:00	-9.8	-9.8	-9.8	87	-11.6	0	2	135	0.00	1024.521	0	0.000	0
20090113 04:05	-9.7	-9.7	-9.7	87	-11.5	0	2	135	0.00	1024.792	0	0.000	0
20090113 04:10	-9.7	-9.7	-9.7	87	-11.4	0	2	135	0.00	1024.792	0	0.000	0
20090113 04:15	-9.6	-9.6	-9.6	87	-11.3	0	2	135	0.00	1024.758	0	0.000	0
20090113 04:20	-9.5	-9.5	-9.5	87	-11.3	0	3	135	0.00	1024.758	0	0.000	0
20090113 04:25	-9.5	-9.5	-9.5	87	-11.3	0	2	135	0.00	1024.792	0	0.000	0
20090113 04:30	-9.5	-9.5	-9.5	86	-11.4	0	2	135	0.00	1024.792	0	0.000	0
20090113 04:35	-9.5	-9.5	-9.5	86	-11.4	0	2	135	0.00	1024.826	0	0.000	0
20090113 04:40	-9.5	-9.5	-9.5	86	-11.4	2	3	135	0.00	1024.792	0	0.000	0
20090113 04:45	-9.6	-9.6	-9.6	86	-11.5	0	2	135	0.00	1024.656	0	0.000	0
20090113 04:50	-9.6	-9.6	-9.6	86	-11.5	0	2	135	0.00	1024.656	0	0.000	0
20090113 04:55	-9.6	-9.6	-9.6	86	-11.5	0	3	135	0.00	1024.623	0	0.000	0
20090113 05:00	-9.4	-9.4	-9.4	87	-11.1	2	3	135	0.00	1024.656	0	0.000	0
20090113 05:05	-9.3	-9.3	-9.3	87	-11.0	2	5	135	0.00	1024.555	0	0.000	0
20090113 05:10	-9.2	-9.2	-9.2	87	-11.0	0	5	157	0.00	1024.487	0	0.000	0
20090113 05:15	-9.2	-9.2	-9.2	87	-10.9	0	3	157	0.00	1024.487	0	0.000	0
20090113 05:20	-9.1	-9.1	-9.1	87	-10.9	0	2	157	0.00	1024.656	0	0.000	0
20090113 05:25	-9.1	-9.1	-9.1	87	-10.8	0	2	157	0.00	1024.690	0	0.000	0
20090113 05:30	-9.1	-9.1	-9.1	87	-10.8	2	3	157	0.00	1024.555	0	0.000	0
20090113 05:35	-8.9	-8.9	-8.9	87	-10.7	2	5	157	0.00	1024.487	0	0.000	0
20090113 05:40	-8.9	-8.9	-8.9	87	-10.7	0	3	157	0.00	1024.419	0	0.000	0
20090113 05:45	-8.8	-8.8	-8.8	87	-10.6	2	3	157	0.00	1024.250	0	0.000	0
20090113 05:50	-8.8	-8.8	-8.8	87	-10.5	0	2	157	0.00	1024.216	0	0.000	0
20090113 05:55	-8.8	-8.8	-8.8	87	-10.5	0	3	157	0.00	1024.318	0	0.000	0
20090113 06:00	-9.0	-9.0	-9.0	85	-11.1	0	3	270	0.00	1024.318	0	0.000	0
20090113 06:05	-9.7	-9.7	-9.7	82	-12.2	0	3	270	0.00	1024.419	0	0.000	0
20090113 06:10	-10.1	-10.1	-10.1	83	-12.4	0	2	270	0.00	1024.352	0	0.000	0
20090113 06:15	-10.3	-10.3	-10.3	84	-12.5	0	0	270	0.00	1024.487	0	0.000	0
20090113 06:20	-10.3	-10.3	-10.3	85	-12.4	2	3	292	0.00	1024.555	0	0.000	0
20090113 06:25	-10.3	-10.3	-10.3	86	-12.2	0	2	292	0.00	1024.352	0	0.000	0
20090113 06:30	-10.2	-10.2	-10.2	87	-12.0	0	2	292	0.00	1024.352	0	0.000	0
20090113 06:35	-10.2	-10.2	-10.2	86	-12.1	2	5	292	0.00	1024.352	0	0.000	0
20090113 06:40	-10.2	-10.2	-10.2	87	-12.0	2	5	292	0.00	1024.182	0	0.000	0
20090113 06:45	-10.2	-10.2	-10.2	87	-11.9	0	0	292	0.00	1024.352	0	0.000	0
20090113 06:50	-10.1	-10.1	-10.1	87	-11.8	0	0	292	0.00	1024.318	0	0.000	0
20090113 06:55	-10.0	-10.0	-10.0	87	-11.7	0	0	292	0.00	1024.182	0	0.000	0
20090113 07:00	-9.8	-9.8	-9.8	88	-11.4	0	2	292	0.00	1024.216	0	0.000	0
20090113 07:05	-9.8	-9.8	-9.8	87	-11.5	0	0	292	0.00	1024.115	0	0.000	0
20090113 07:10	-9.7	-9.7	-9.7	87	-11.4	2	6	292	0.00	1024.148	0	0.000	0
20090113 07:15	-9.8	-9.8	-9.8	85	-11.9	2	6	292	0.00	1024.352	0	0.000	0
20090113 07:20	-10.4	-10.4	-10.4	83	-12.8	2	3	292	0.00	1024.419	0	0.000	0
20090113 07:25	-10.7	-10.7	-10.7	84	-12.8	2	3	292	0.00	1024.419	0	0.000	0
20090113 07:30	-10.7	-10.7	-10.7	85	-12.7	0	0	292	0.00	1024.250	0	0.000	0
20090113 07:35	-10.7	-10.7	-10.7	86	-12.5	0	2	292	0.00	1024.148	0	0.000	0
20090113 07:40	-10.5	-10.5	-10.5	87	-12.2	0	2	292	0.00	1024.148	0	0.000	0
20090113 07:45	-10.5	-10.5	-10.5	86	-12.4	0	2	292	0.00	1024.081	0	0.000	0
20090113 07:50	-10.4	-10.4	-10.4	87	-12.1	0	0	292	0.00	1024.182	0	0.000	0
20090113 07:55	-10.3	-10.3	-10.3	87	-12.0	0	0	292	0.00	1024.148	0	0.000	0
20090113 08:00	-10.2	-10.2	-10.2	87	-12.0	0	0	292	0.00	1024.216	0	0.000	0
20090113 08:05	-10.2	-10.2	-10.2	87	-11.9	0	2	292	0.00	1024.148	0	0.000	0
20090113 08:10	-10.0	-10.0	-10.0	87	-11.7	0	0	292	0.00	1024.013	4	0.000	0
20090113 08:15	-9.8	-9.8	-9.8	87	-11.6	0	0	292	0.00	1023.945	6	0.000	0
20090113 08:20	-9.8	-9.8	-9.8	87	-11.5	0	3	292	0.00	1023.844	8	0.000	0
20090113 08:25	-9.8	-9.8	-9.8	86	-11.7	0	0	292	0.00	1023.844	10	0.000	0
20090113 08:30	-10.1	-10.1	-10.1	85	-12.1	0	0	292	0.00	1023.911	11	0.000	0
20090113 08:35	-10.3	-10.3	-10.3	84	-12.5	2	5	292	0.00	1023.911	12	0.000	0
20090113 08:40	-10.4	-10.4	-10.4	84	-12.6	2	5	292	0.00	1023.810	14	0.000	0
20090113 08:45	-10.5	-10.5	-10.5	85	-12.5	0	0	292	0.00	1023.708	15	0.000	0
20090113 08:50	-10.3	-10.3	-10.3	86	-12.2	0	0	292	0.00	1023.640	16	0.000	0
20090113 08:55	-10.2	-10.2	-10.2	87	-11.9	0	2	292	0.00	1023.607	16	0.000	0
20090113 09:00	-9.8	-9.8	-9.8	87	-11.6	0	3	112	0.00	1023.505	18	0.000	0
20090113 09:05	-9.6	-9.6	-9.6	88	-11.2	0	3	112	0.00	1023.471	19	0.000	0
20090113 09:10	-9.3	-9.3	-9.3	87	-11.1	0	2	112	0.00	1023.471	19	0.000	0
20090113 09:15	-9.2	-9.2	-9.2	87	-10.9	0	3	112	0.00	1023.471	20	0.000	0
20090113 09:20	-8.9	-8.9	-8.9	88	-10.5	2	5	112	0.00	1023.437	21	0.000	0
20090113 09:25	-8.7	-8.7	-8.7	88	-10.3	0	3	112	0.00	1023.471	23	0.000	0
20090113 09:30	-8.4	-8.4	-8.4	87	-10.2	0	3	112	0.00	1023.268	23	0.000	0
20090113 09:35	-8.3	-8.3	-8.3	87	-10.1	0	3	112	0.00	1023.200	25	0.000	0
20090113 09:40	-8.2	-8.2	-8.2	87	-9.9	0	0	112	0.00	1023.200	25	0.000	0
20090113 09:45	-7.9	-7.9	-7.9	88	-9.6	0	0	112	0.00	1023.166	26	0.000	0
20090113 09:50	-7.7	-7.7	-7.7	87	-9.4	0	0	112	0.00	1023.031	26	0.000	0
20090113 09:55	-7.4	-7.4	-7.4	87	-9.2	0	0	112	0.00	1022.760	26	0.000	0
20090113 10:00	-7.2	-7.2	-7.2	87	-9.0	0	0	112	0.00	1022.794	27	0.000	0
20090113 10:05	-6.9	-6.9	-6.9	87	-8.7	0	0	112	0.00	1022.963	28	0.000	0
20090113 10:10	-6.7	-6.7	-6.7	87	-8.5	0	2	112	0.00	1022.895	28	0.000	0
20090113 10:15	-6.4	-6.4	-6.4	88	-8.0	0	3	112	0.00	1022.895	29	0.000	0
20090113 10:20	-6.0	-6.0	-6.0	88	-7.7	0	3	112	0.00	1022.794	30	0.000	0
20090113 10:25	-5.4	-5.4	-5.4	89	-6.9	0	3	112	0.00	1022.828	31	0.000	0
20090113 10:30	-4.7	-4.7	-4.7	88	-6.4	2	5	112	0.00	1022.625	32	0.000	0
20090113 10:35	-4.3	-4.3	-4.3	86	-6.3	2	5	112	0.00	1022.489	33	0.000	0
20090113 10:40	-4.1	-4.1	-4.1	84	-6.4	0	3	112	0.00	1022.320	33	0.000	0
20090113 10:45	-4.0	-4.0	-4.0	83	-6.5	2	5	112	0.00	1022.286	34	0.000	0
20090113 10:50	-3.9	-3.9	-3.9	83	-6.4	3	6	112	0.00	1022.354	35	0.000	0
20090113 10:55	-3.9	-3.9	-3.9	82	-6.5	2	5	247	0.00	1022.286	37	0.000	0
20090113 11:00	-3.9	-3.9	-3.9	82	-6.5	2	5	247	0.00	1022.184	37	0.000	0
20090113 11:05	-3.8	-3.8	-3.8	81	-6.6	2	6	247	0.00	1022.286	37	0.000	0
20090113 11:10	-3.8	-3.8	-3.8	81	-6.6	3	6	247	0.00	1022.286	37	0.000	0
20090113 11:15	-3.8	-3.8	-3.8	81	-6.6	3	6	247	0.00	1022.150	214	0.000	1
20090113 11:20	-3.7	-3.7	-3.7	80	-6.7	5	6	0	0.00	1022.083	278	0.000	1
20090113 11:25	-3.4	-3.4	-3.4	81	-6.2	3	5	0	0.00	1021.744	288	0.000	1
20090113 11:30	-3.1	-3.1	-3.1	80	-6.0	3	6	0	0.00	1021.609	316	0.000	1
20090113 11:35	-2.8	-2.8	-2.8	79	-5.9	3	5	22	0.00	1021.541	325	0.000	1
20090113 11:40	-2.4	-2.4	-2.4	79	-5.6	3	5	22	0.00	1021.372	328	0.000	1
20090113 11:45	-2.2	-2.2	-2.2	78	-5.5	3	6	22	0.00	1021.338	322	0.000	1
20090113 11:50	-1.9	-1.9	-1.9	77	-5.4	3	6	22	0.00	1021.236	316	0.000	1
20090113 11:55	-1.8	-1.8	-1.8	77	-5.3	3	6	22	0.00	1021.202	318	0.000	1
20090113 12:00	-1.6	-1.6	-1.6	78	-4.9	3	6	22	0.00	1021.134	319	0.060	1
20090113 12:05	-1.3	-1.3	-1.3	77	-4.8	3	6	22	0.00	1020.965	321	0.000	1
20090113 12:10	-0.9	-0.9	-0.9	76	-4.6	3	6	22	0.00	1020.897	323	0.000	1
20090113 12:15	-0.8	-0.8	-0.8	76	-4.5	5	6	22	0.00	1020.627	323	0.000	1
20090113 12:20	-0.6	-0.6	-0.6	76	-4.3	3	6	22	0.00	1020.593	322	0.000	1
20090113 12:25	-0.4	-0.4	-0.4	74	-4.4	5	6	22	0.00	1020.593	320	0.000	1
20090113 12:30	-0.3	-0.3	-0.3	74	-4.3	5	8	22	0.00	1020.559	319	0.000	1
20090113 12:35	-0.4	-0.4	-0.4	74	-4.4	5	10	22	0.00	1020.491	317	0.000	1
20090113 12:40	-0.5	-2.8	-0.5	74	-4.6	6	11	22	0.00	1020.423	316	0.000	1
20090113 12:45	-0.6	-2.8	-0.6	75	-4.4	6	10	22	0.00	1020.423	315	0.000	1
20090113 12:50	-0.3	-0.3	-0.3	75	-4.2	5	10	22	0.00	1020.390	312	0.000	1
20090113 12:55	-0.3	-2.5	-0.3	73	-4.5	6	10	22	0.00	1020.254	310	0.000	1
20090113 13:00	-0.3	-2.6	-0.3	74	-4.4	6	11	45	0.00	1020.152	311	0.080	1
20090113 13:05	-0.2	-0.2	-0.2	74	-4.3	5	10	22	0.00	1020.051	307	0.000	1
20090113 13:10	-0.2	-2.4	-0.2	73	-4.4	6	10	22	0.00	1019.983	302	0.000	1
20090113 13:15	-0.2	-2.4	-0.2	73	-4.4	6	10	22	0.00	1019.882	300	0.000	1
20090113 13:20	-0.3	-2.5	-0.3	73	-4.5	6	10	45	0.00	1019.848	299	0.000	1
20090113 13:25	-0.3	-2.5	-0.3	73	-4.5	6	11	22	0.00	1019.848	291	0.000	1
20090113 13:30	-0.2	-0.2	-0.2	73	-4.5	5	10	22	0.00	1019.712	288	0.000	1
20090113 13:35	-0.3	-3.1	-0.3	73	-4.5	8	11	45	0.00	1019.678	283	0.000	1
20090113 13:40	-0.3	-2.5	-0.3	72	-4.7	6	14	22	0.00	1019.645	280	0.000	1
20090113 13:45	-0.3	-2.5	-0.3	73	-4.5	6	10	45	0.00	1019.509	273	0.000	1
20090113 13:50	-0.3	-3.1	-0.3	72	-4.7	8	11	45	0.00	1019.543	268	0.000	1
20090113 13:55	-0.3	-2.5	-0.3	72	-4.7	6	11	22	0.00	1019.475	262	0.000	1
20090113 14:00	-0.3	-2.5	-0.3	72	-4.7	6	11	45	0.00	1019.374	255	0.080	1
20090113 14:05	-0.2	-2.4	-0.2	73	-4.5	6	11	45	0.00	1019.509	249	0.000	1
20090113 14:10	-0.3	-2.5	-0.3	72	-4.7	6	11	45	0.00	1019.407	241	0.000	1
20090113 14:15	-0.3	-2.6	-0.3	73	-4.6	6	11	67	0.00	1019.441	231	0.000	0
20090113 14:20	-0.3	-2.5	-0.3	73	-4.5	6	10	67	0.00	1019.340	236	0.000	0
20090113 14:25	-0.3	-0.3	-0.3	73	-4.5	5	10	45	0.00	1019.272	243	0.000	0
20090113 14:30	-0.3	-2.6	-0.3	73	-4.6	6	10	45	0.00	1019.407	183	0.000	0
20090113 14:35	-0.3	-0.3	-0.3	73	-4.6	5	6	45	0.00	1019.340	47	0.000	0
20090113 14:40	-0.3	-0.3	-0.3	73	-4.6	5	10	22	0.00	1019.340	47	0.000	0
20090113 14:45	-0.3	-0.3	-0.3	73	-4.5	3	6	45	0.00	1019.407	46	0.000	0
20090113 14:50	-0.3	-0.3	-0.3	73	-4.5	3	6	67	0.00	1019.306	46	0.000	0
20090113 14:55	-0.2	-0.2	-0.2	72	-4.7	3	6	45	0.00	1019.272	45	0.000	0
20090113 15:00	-0.3	-0.3	-0.3	73	-4.6	5	8	45	0.00	1019.170	43	0.040	0
20090113 15:05	-0.4	-0.4	-0.4	73	-4.6	5	8	22	0.00	1019.272	41	0.000	0
20090113 15:10	-0.5	-0.5	-0.5	72	-4.9	5	8	22	0.00	1019.204	40	0.000	0
20090113 15:15	-0.6	-2.9	-0.6	73	-4.8	6	10	45	0.00	1019.204	39	0.000	0
20090113 15:20	-0.7	-0.7	-0.7	73	-4.9	3	8	45	0.00	1019.137	38	0.000	0
20090113 15:25	-0.7	-0.7	-0.7	73	-5.0	5	10	22	0.00	1019.103	36	0.000	0
20090113 15:30	-0.8	-0.8	-0.8	73	-5.0	5	6	67	0.00	1018.967	33	0.000	0
20090113 15:35	-0.8	-0.8	-0.8	74	-4.9	5	10	45	0.00	1018.967	32	0.000	0
20090113 15:40	-0.9	-0.9	-0.9	74	-5.0	3	5	45	0.00	1019.069	30	0.000	0
20090113 15:45	-1.0	-1.0	-1.0	74	-5.0	3	6	45	0.00	1019.035	28	0.000	0
20090113 15:50	-1.1	-1.1	-1.1	74	-5.1	3	6	67	0.00	1019.035	26	0.000	0
20090113 15:55	-1.1	-1.1	-1.1	74	-5.1	3	6	67	0.00	1019.103	25	0.000	0
20090113 16:00	-1.2	-1.2	-1.2	74	-5.2	3	6	45	0.00	1019.001	23	0.020	0
20090113 16:05	-1.2	-1.2	-1.2	74	-5.3	3	5	45	0.00	1019.035	20	0.000	0
20090113 16:10	-1.3	-1.3	-1.3	74	-5.3	2	3	45	0.00	1019.035	19	0.000	0
20090113 16:15	-1.3	-1.3	-1.3	74	-5.4	2	5	45	0.00	1019.069	17	0.000	0
20090113 16:20	-1.5	-1.5	-1.5	74	-5.5	2	3	45	0.00	1019.137	14	0.000	0
20090113 16:25	-1.6	-1.6	-1.6	74	-5.6	0	3	45	0.00	1019.137	12	0.000	0
20090113 16:30	-1.7	-1.7	-1.7	74	-5.7	0	2	45	0.00	1019.069	11	0.000	0
20090113 16:35	-1.7	-1.7	-1.7	75	-5.6	0	3	45	0.00	1019.103	8	0.000	0
20090113 16:40	-1.8	-1.8	-1.8	75	-5.6	0	3	45	0.00	1018.933	6	0.000	0
20090113 16:45	-1.9	-1.9	-1.9	74	-5.9	2	5	45	0.00	1018.798	2	0.000	0
20090113 16:50	-2.1	-2.1	-2.1	74	-6.1	3	5	45	0.00	1018.899	0	0.000	0
20090113 16:55	-2.2	-2.2	-2.2	74	-6.2	2	5	45	0.00	1018.933	0	0.000	0
20090113 17:00	-2.2	-2.2	-2.2	74	-6.2	2	5	45	0.00	1019.035	0	0.000	0
20090113 17:05	-2.3	-2.3	-2.3	74	-6.3	0	3	45	0.00	1018.967	0	0.000	0
20090113 17:10	-2.4	-2.4	-2.4	74	-6.4	2	3	45	0.00	1018.866	0	0.000	0
20090113 17:15	-2.6	-2.6	-2.6	73	-6.8	2	3	292	0.00	1019.035	0	0.000	0
20090113 17:20	-2.9	-2.9	-2.9	74	-6.9	2	3	292	0.00	1019.001	0	0.000	0
20090113 17:25	-3.2	-3.2	-3.2	77	-6.6	2	3	315	0.00	1019.035	0	0.000	0
20090113 17:30	-3.3	-3.3	-3.3	78	-6.6	2	5	315	0.00	1019.069	0	0.000	0
20090113 17:35	-3.5	-3.5	-3.5	79	-6.6	2	5	315	0.00	1018.933	0	0.000	0
20090113 17:40	-3.6	-3.6	-3.6	80	-6.6	3	5	337	0.00	1018.967	0	0.000	0
20090113 17:45	-3.6	-3.6	-3.6	80	-6.6	0	5	22	0.00	1019.001	0	0.000	0
20090113 17:50	-3.7	-3.7	-3.7	80	-6.6	0	3	22	0.00	1019.238	0	0.000	0
20090113 17:55	-3.8	-3.8	-3.8	79	-6.9	0	2	22	0.00	1019.103	0	0.000	0
20090113 18:00	-3.9	-3.9	-3.9	80	-6.9	0	2	22	0.00	1019.069	0	0.000	0
20090113 18:05	-4.0	-4.0	-4.0	81	-6.8	0	0	22	0.00	1019.374	0	0.000	0
20090113 18:10	-4.1	-4.1	-4.1	81	-6.9	0	0	22	0.00	1019.272	0	0.000	0
20090113 18:15	-4.2	-4.2	-4.2	81	-6.9	0	0	22	0.00	1019.238	0	0.000	0
20090113 18:20	-4.3	-4.3	-4.3	81	-7.0	0	0	22	0.00	1019.137	0	0.000	0
20090113 18:25	-4.3	-4.3	-4.3	82	-6.9	0	0	22	0.00	1019.069	0	0.000	0
20090113 18:30	-4.4	-4.4	-4.4	82	-7.0	0	0	22	0.00	1019.204	0	0.000	0
20090113 18:35	-4.4	-4.4	-4.4	82	-7.0	0	0	22	0.00	1019.170	0	0.000	0
20090113 18:40	-4.4	-4.4	-4.4	82	-7.0	0	0	22	0.00	1019.204	0	0.000	0
20090113 18:45	-4.4	-4.4	-4.4	82	-7.0	0	2	22	0.00	1019.340	0	0.000	0
20090113 18:50	-4.5	-4.5	-4.5	82	-7.1	0	0	22	0.00	1019.272	0	0.000	0
20090113 18:55	-4.6	-4.6	-4.6	82	-7.2	0	3	22	0.00	1019.441	0	0.000	0
20090113 19:00	-4.7	-4.7	-4.7	82	-7.3	2	3	225	0.00	1019.645	0	0.000	0
20090113 19:05	-4.8	-4.8	-4.8	82	-7.4	0	2	225	0.00	1019.678	0	0.000	0
20090113 19:10	-4.9	-4.9	-4.9	82	-7.5	0	2	225	0.00	1019.577	0	0.000	0
20090113 19:15	-5.1	-5.1	-5.1	82	-7.7	0	0	225	0.00	1019.441	0	0.000	0
20090113 19:20	-5.3	-5.3	-5.3	82	-7.9	0	0	225	0.00	1019.407	0	0.000	0
20090113 19:25	-5.4	-5.4	-5.4	82	-8.0	0	0	225	0.00	1019.543	0	0.000	0
20090113 19:30	-5.5	-5.5	-5.5	82	-8.1	0	0	225	0.00	1019.441	0	0.000	0
20090113 19:35	-5.6	-5.6	-5.6	82	-8.1	0	0	225	0.00	1019.577	0	0.000	0
20090113 19:40	-5.7	-5.7	-5.7	83	-8.1	0	0	225	0.00	1019.475	0	0.000	0
20090113 19:45	-5.8	-5.8	-5.8	83	-8.2	0	0	225	0.00	1019.374	0	0.000	0
20090113 19:50	-5.8	-5.8	-5.8	83	-8.2	0	0	225	0.00	1019.340	0	0.000	0
20090113 19:55	-5.9	-5.9	-5.9	83	-8.3	0	0	225	0.00	1019.374	0	0.000	0
20090113 20:00	-5.9	-5.9	-5.9	83	-8.4	0	0	225	0.00	1019.441	0	0.000	0
20090113 20:05	-6.0	-6.0	-6.0	84	-8.3	0	0	225	0.00	1019.374	0	0.000	0
20090113 20:10	-6.1	-6.1	-6.1	84	-8.4	2	3	225	0.00	1019.272	0	0.000	0
20090113 20:15	-6.3	-6.3	-6.3	83	-8.7	0	0	225	0.00	1019.137	0	0.000	0
20090113 20:20	-6.4	-6.4	-6.4	83	-8.8	0	0	225	0.00	1019.035	0	0.000	0
20090113 20:25	-6.5	-6.5	-6.5	84	-8.7	0	0	225	0.00	1019.035	0	0.000	0
20090113 20:30	-6.6	-6.6	-6.6	84	-8.8	0	2	225	0.00	1019.001	0	0.000	0
20090113 20:35	-6.6	-6.6	-6.6	85	-8.7	0	0	225	0.00	1018.899	0	0.000	0
20090113 20:40	-6.6	-6.6	-6.6	85	-8.7	0	3	225	0.00	1019.001	0	0.000	0
20090113 20:45	-6.6	-6.6	-6.6	85	-8.7	0	2	225	0.00	1019.001	0	0.000	0
20090113 20:50	-6.6	-6.6	-6.6	85	-8.7	0	0	225	0.00	1018.967	0	0.000	0
20090113 20:55	-6.6	-6.6	-6.6	85	-8.7	0	2	225	0.00	1018.967	0	0.000	0
20090113 21:00	-6.6	-6.6	-6.6	85	-8.7	0	2	225	0.00	1019.001	0	0.000	0
20090113 21:05	-6.6	-6.6	-6.6	85	-8.7	0	0	225	0.00	1018.629	0	0.000	0
20090113 21:10	-6.6	-6.6	-6.6	85	-8.7	0	0	225	0.00	1018.561	0	0.000	0
20090113 21:15	-6.6	-6.6	-6.6	85	-8.7	0	2	225	0.00	1018.392	0	0.000	0
20090113 21:20	-6.8	-6.8	-6.8	84	-9.0	0	2	225	0.00	1018.222	0	0.000	0
20090113 21:25	-6.8	-6.8	-6.8	85	-8.9	0	3	225	0.00	1018.324	0	0.000	0
20090113 21:30	-6.8	-6.8	-6.8	86	-8.8	0	0	225	0.00	1018.324	0	0.000	0
20090113 21:35	-6.9	-6.9	-6.9	86	-8.8	0	0	225	0.00	1018.222	0	0.000	0
20090113 21:40	-7.0	-7.0	-7.0	85	-9.1	0	2	225	0.00	1018.222	0	0.000	0
20090113 21:45	-7.1	-7.1	-7.1	85	-9.2	0	0	225	0.00	1018.188	0	0.000	0
20090113 21:50	-7.2	-7.2	-7.2	85	-9.3	0	0	225	0.00	1018.222	0	0.000	0
20090113 21:55	-7.4	-7.4	-7.4	85	-9.5	0	0	225	0.00	1018.154	0	0.000	0
20090113 22:00	-7.5	-7.5	-7.5	85	-9.6	0	0	225	0.00	1018.053	0	0.000	0
20090113 22:05	-7.7	-7.7	-7.7	85	-9.8	2	3	225	0.00	1017.782	0	0.000	0
20090113 22:10	-7.8	-7.8	-7.8	85	-9.9	2	5	225	0.00	1017.782	0	0.000	0
20090113 22:15	-7.9	-7.9	-7.9	86	-9.9	0	2	225	0.00	1017.680	0	0.000	0
20090113 22:20	-7.9	-7.9	-7.9	86	-9.9	0	2	225	0.00	1017.680	0	0.000	0
20090113 22:25	-8.1	-8.1	-8.1	86	-10.0	0	2	225	0.00	1017.850	0	0.000	0
20090113 22:30	-8.1	-8.1	-8.1	86	-10.0	0	3	225	0.00	1017.850	0	0.000	0
20090113 22:35	-8.1	-8.1	-8.1	87	-9.9	0	2	225	0.00	1017.782	0	0.000	0
20090113 22:40	-8.1	-8.1	-8.1	87	-9.9	0	0	225	0.00	1017.782	0	0.000	0
20090113 22:45	-8.1	-8.1	-8.1	87	-9.8	0	0	225	0.00	1017.748	0	0.000	0
20090113 22:50	-8.1	-8.1	-8.1	87	-9.9	2	3	225	0.00	1017.748	0	0.000	0
20090113 22:55	-8.1	-8.1	-8.1	87	-9.9	0	2	225	0.00	1017.714	0	0.000	0
20090113 23:00	-8.1	-8.1	-8.1	87	-9.8	0	0	225	0.00	1017.748	0	0.000	0
20090113 23:05	-8.1	-8.1	-8.1	87	-9.8	0	0	225	0.00	1017.443	0	0.000	0
20090113 23:10	-8.1	-8.1	-8.1	87	-9.9	0	0	225	0.00	1017.376	0	0.000	0
20090113 23:15	-8.1	-8.1	-8.1	87	-9.9	0	0	225	0.00	1017.274	0	0.000	0
20090113 23:20	-8.3	-8.3	-8.3	86	-10.2	0	2	225	0.00	1017.172	0	0.000	0
20090113 23:25	-8.4	-8.4	-8.4	86	-10.3	0	2	225	0.00	1017.105	0	0.000	0
20090113 23:30	-8.4	-8.4	-8.4	86	-10.4	0	2	225	0.00	1017.003	0	0.000	0
20090113 23:35	-8.6	-8.6	-8.6	86	-10.5	0	2	225	0.00	1016.901	0	0.000	0
20090113 23:40	-8.7	-8.7	-8.7	85	-10.8	0	0	225	0.00	1017.003	0	0.000	0
20090113 23:45	-8.9	-8.9	-8.9	85	-11.0	0	0	225	0.00	1016.969	0	0.000	0
20090113 23:50	-9.1	-9.1	-9.1	87	-10.8	0	2	225	0.00	1016.834	0	0.000	0
20090113 23:55	-9.1	-9.1	-9.1	87	-10.8	0	0	225	0.00	1016.868	0	0.000	0
20090113 24:00	-9.1	-9.1	-9.1	87	-10.8	0	0	225	0.00	1016.901	0	0.000	0



Please note the license to use and transfer of this data:
http://creativecommons.org/licenses/by-nc-sa/3.0/deed.en

Bitte beachten sie die Lizenz zur Verwertung und Weitergabe der Daten:
http://creativecommons.org/licenses/by-nc-sa/3.0/deed.de

zurück zur Übersicht der Archivdaten (Monats und Tagesdaten)

Cookies helfen bei der Bereitstellung von Inhalten. Durch die Nutzung dieser Seiten erklärst du dich damit einverstanden, dass Cookies auf deinem Rechner gespeichert werden. Weitere Information